createdAt,value
2022-08-14T00:01:54.856Z,17.45
2022-08-14T00:04:34.593Z,15.68
2022-08-14T00:07:09.798Z,13.82
2022-08-14T00:09:39.629Z,14.32
2022-08-14T00:12:33.917Z,13.32
2022-08-14T00:15:06.988Z,14.45
2022-08-14T00:17:38.047Z,15.57
2022-08-14T00:20:15.556Z,12.73
2022-08-14T00:22:57.391Z,11.23
2022-08-14T00:25:30.718Z,12.70
2022-08-14T00:28:15.469Z,12.25
2022-08-14T00:30:45.527Z,13.07
2022-08-14T00:33:15.285Z,15.13
2022-08-14T00:36:36.955Z,13.45
2022-08-14T00:38:31.905Z,12.30
2022-08-14T00:40:59.866Z,12.73
2022-08-14T00:43:31.589Z,12.30
2022-08-14T00:46:02.772Z,11.48
2022-08-14T00:48:34.664Z,11.52
2022-08-14T00:51:05.030Z,11.75
2022-08-14T00:53:32.728Z,12.88
2022-08-14T00:56:00.351Z,12.48
2022-08-14T00:58:33.099Z,10.48
2022-08-14T01:01:01.999Z,12.05
2022-08-14T01:03:30.778Z,13.63
2022-08-14T01:06:00.610Z,13.32
2022-08-14T01:08:52.000Z,17.80
2022-08-14T01:11:19.022Z,10.23
2022-08-14T01:13:55.902Z,11.60
2022-08-14T01:16:30.998Z,12.18
2022-08-14T01:19:16.385Z,10.27
2022-08-14T01:21:53.133Z,13.88
2022-08-14T01:24:24.708Z,10.88
2022-08-14T01:27:00.355Z,15.32
2022-08-14T01:29:35.165Z,10.90
2022-08-14T01:32:23.179Z,13.13
2022-08-14T01:35:17.492Z,14.60
2022-08-14T01:37:44.225Z,12.00
2022-08-14T01:40:12.479Z,10.40
2022-08-14T01:42:44.404Z,12.82
2022-08-14T01:45:17.782Z,13.25
2022-08-14T01:48:02.991Z,15.75
2022-08-14T01:50:33.666Z,12.32
2022-08-14T01:53:03.003Z,14.25
2022-08-14T01:55:31.687Z,14.55
2022-08-14T01:58:18.193Z,11.27
2022-08-14T02:00:48.351Z,12.07
2022-08-14T02:03:16.995Z,10.30
2022-08-14T02:05:44.439Z,12.55
2022-08-14T02:08:13.353Z,13.32
2022-08-14T02:10:47.161Z,11.43
2022-08-14T02:13:16.191Z,10.98
2022-08-14T02:15:44.158Z,17.35
2022-08-14T02:18:15.349Z,11.85
2022-08-14T02:20:42.990Z,11.68
2022-08-14T02:23:12.696Z,10.52
2022-08-14T02:25:40.141Z,13.35
2022-08-14T02:28:24.523Z,12.60
2022-08-14T02:30:55.954Z,13.02
2022-08-14T02:33:23.446Z,11.88
2022-08-14T02:35:53.410Z,15.65
2022-08-14T02:38:30.363Z,12.32
2022-08-14T02:41:01.861Z,14.18
2022-08-14T02:43:36.791Z,12.77
2022-08-14T02:46:13.424Z,13.18
2022-08-14T02:49:04.320Z,12.02
2022-08-14T02:51:33.948Z,12.20
2022-08-14T02:54:03.762Z,13.18
2022-08-14T02:57:16.180Z,11.40
2022-08-14T02:59:21.106Z,10.10
2022-08-14T03:01:51.175Z,14.32
2022-08-14T03:04:22.963Z,10.52
2022-08-14T03:10:24.752Z,14.05
2022-08-14T03:12:30.699Z,14.52
2022-08-14T03:15:00.365Z,10.45
2022-08-14T03:17:31.790Z,13.43
2022-08-14T03:20:11.359Z,12.75
2022-08-14T03:22:42.363Z,19.10
2022-08-14T03:25:12.176Z,11.55
2022-08-14T03:27:48.288Z,10.80
2022-08-14T03:30:39.070Z,12.40
2022-08-14T03:33:09.150Z,11.50
2022-08-14T03:35:40.252Z,12.15
2022-08-14T03:39:11.954Z,12.05
2022-08-14T03:41:18.419Z,9.10
2022-08-14T03:43:46.171Z,11.63
2022-08-14T03:46:51.829Z,10.05
2022-08-14T03:49:13.997Z,11.20
2022-08-14T03:51:51.934Z,11.05
2022-08-14T03:54:21.338Z,11.05
2022-08-14T03:56:50.376Z,12.27
2022-08-14T03:59:18.258Z,11.23
2022-08-14T04:01:53.890Z,9.57
2022-08-14T04:04:25.483Z,9.65
2022-08-14T04:06:53.383Z,13.35
2022-08-14T04:09:26.925Z,10.85
2022-08-14T04:11:57.904Z,12.02
2022-08-14T04:14:25.532Z,10.98
2022-08-14T04:16:52.959Z,10.10
2022-08-14T04:19:23.984Z,10.60
2022-08-14T04:22:02.059Z,13.02
2022-08-14T04:24:37.607Z,12.35
2022-08-14T04:27:09.534Z,11.93
2022-08-14T04:29:38.202Z,10.57
2022-08-14T04:33:02.614Z,11.23
2022-08-14T04:34:55.872Z,11.43
2022-08-14T04:37:41.336Z,10.93
2022-08-14T04:40:27.895Z,15.25
2022-08-14T04:43:17.301Z,11.57
2022-08-14T04:45:45.534Z,12.57
2022-08-14T04:48:33.803Z,13.73
2022-08-14T04:51:09.510Z,11.57
2022-08-14T04:53:43.062Z,11.52
2022-08-14T04:56:31.626Z,11.88
2022-08-14T04:59:04.993Z,12.13
2022-08-14T05:01:39.808Z,11.05
2022-08-14T05:04:08.384Z,16.65
2022-08-14T05:06:38.376Z,13.27
2022-08-14T05:09:07.361Z,11.70
2022-08-14T05:11:41.300Z,12.30
2022-08-14T05:14:34.494Z,10.70
2022-08-14T05:17:01.828Z,14.02
2022-08-14T05:19:29.973Z,11.10
2022-08-14T05:22:15.498Z,11.35
2022-08-14T05:24:45.184Z,14.15
2022-08-14T05:27:12.659Z,10.27
2022-08-14T05:29:44.696Z,11.32
2022-08-14T05:32:13.397Z,12.50
2022-08-14T05:34:45.703Z,11.15
2022-08-14T05:37:15.324Z,12.52
2022-08-14T05:39:43.278Z,11.40
2022-08-14T05:42:22.211Z,10.55
2022-08-14T05:44:56.311Z,10.88
2022-08-14T05:47:23.837Z,11.90
2022-08-14T05:49:51.767Z,9.68
2022-08-14T05:52:38.702Z,10.02
2022-08-14T05:55:08.839Z,11.80
2022-08-14T05:57:36.942Z,9.43
2022-08-14T06:00:06.584Z,11.73
2022-08-14T06:02:36.415Z,9.55
2022-08-14T06:05:03.871Z,12.10
2022-08-14T06:07:32.030Z,11.13
2022-08-14T06:10:03.373Z,10.18
2022-08-14T06:12:56.738Z,9.48
2022-08-14T06:15:20.879Z,9.95
2022-08-14T06:17:55.882Z,11.07
2022-08-14T06:20:28.124Z,11.27
2022-08-14T06:22:56.266Z,9.63
2022-08-14T06:25:24.933Z,12.70
2022-08-14T06:27:52.653Z,9.68
2022-08-14T06:30:30.422Z,10.80
2022-08-14T06:33:15.646Z,13.10
2022-08-14T06:35:43.408Z,10.07
2022-08-14T06:38:17.451Z,12.98
2022-08-14T06:40:45.047Z,11.30
2022-08-14T06:43:15.403Z,11.18
2022-08-14T06:45:50.298Z,10.35
2022-08-14T06:48:23.603Z,11.68
2022-08-14T06:50:52.048Z,10.55
2022-08-14T06:53:19.850Z,11.55
2022-08-14T06:55:58.222Z,12.90
2022-08-14T06:58:30.874Z,9.90
2022-08-14T07:01:24.999Z,13.98
2022-08-14T07:04:18.850Z,12.50
2022-08-14T07:06:50.989Z,11.55
2022-08-14T07:09:22.566Z,10.30
2022-08-14T07:11:50.653Z,9.27
2022-08-14T07:14:18.326Z,11.27
2022-08-14T07:16:47.119Z,10.27
2022-08-14T07:19:17.658Z,9.73
2022-08-14T07:21:48.615Z,9.32
2022-08-14T07:24:21.836Z,11.77
2022-08-14T07:26:53.850Z,11.20
2022-08-14T07:29:26.052Z,10.80
2022-08-14T07:31:55.127Z,11.20
2022-08-14T07:34:36.487Z,8.68
2022-08-14T07:37:08.578Z,11.13
2022-08-14T07:39:37.540Z,9.30
2022-08-14T07:42:06.534Z,11.43
2022-08-14T07:44:46.016Z,12.15
2022-08-14T07:47:17.898Z,8.77
2022-08-14T07:49:55.456Z,10.07
2022-08-14T07:52:30.812Z,8.55
2022-08-14T07:55:01.048Z,10.23
2022-08-14T07:57:28.493Z,8.55
2022-08-14T07:59:55.914Z,8.85
2022-08-14T08:02:28.825Z,8.27
2022-08-14T08:05:01.462Z,10.73
2022-08-14T08:07:31.266Z,10.43
2022-08-14T08:10:01.074Z,8.75
2022-08-14T08:12:32.062Z,12.75
2022-08-14T08:15:05.664Z,8.80
2022-08-14T08:17:38.542Z,7.07
2022-08-14T08:20:09.261Z,8.20
2022-08-14T08:22:40.785Z,7.75
2022-08-14T08:25:13.810Z,8.43
2022-08-14T08:27:44.911Z,10.52
2022-08-14T08:30:13.229Z,9.18
2022-08-14T08:32:43.649Z,9.50
2022-08-14T08:35:11.802Z,9.10
2022-08-14T08:37:40.155Z,11.63
2022-08-14T08:40:08.276Z,8.52
2022-08-14T08:42:38.661Z,8.20
2022-08-14T08:45:12.493Z,9.32
2022-08-14T08:47:40.718Z,10.30
2022-08-14T08:50:23.397Z,8.23
2022-08-14T08:52:59.174Z,7.43
2022-08-14T08:55:27.893Z,8.65
2022-08-14T08:57:56.218Z,6.03
2022-08-14T09:00:26.324Z,7.60
2022-08-14T09:02:59.207Z,8.70
2022-08-14T09:05:29.076Z,7.80
2022-08-14T09:08:09.514Z,7.38
2022-08-14T09:10:57.491Z,7.25
2022-08-14T09:13:26.093Z,11.73
2022-08-14T09:15:54.561Z,7.40
2022-08-14T09:18:23.850Z,8.82
2022-08-14T09:20:54.797Z,7.43
2022-08-14T09:23:34.537Z,9.95
2022-08-14T09:28:30.156Z,8.15
2022-08-14T09:31:17.351Z,10.15
2022-08-14T09:33:55.979Z,8.02
2022-08-14T09:36:35.263Z,8.50
2022-08-14T09:39:08.108Z,8.48
2022-08-14T09:42:17.306Z,13.25
2022-08-14T09:44:41.996Z,5.68
2022-08-14T09:47:14.749Z,7.60
2022-08-14T09:49:42.811Z,9.75
2022-08-14T09:52:32.755Z,9.27
2022-08-14T09:55:02.644Z,7.68
2022-08-14T09:57:31.777Z,5.35
2022-08-14T09:59:59.366Z,9.63
2022-08-14T10:02:28.028Z,7.47
2022-08-14T10:05:03.206Z,5.85
2022-08-14T10:07:32.828Z,6.32
2022-08-14T10:10:02.247Z,6.10
2022-08-14T10:12:48.125Z,4.95
2022-08-14T10:15:19.459Z,8.00
2022-08-14T10:17:48.951Z,9.27
2022-08-14T10:20:41.066Z,6.25
2022-08-14T10:23:18.020Z,9.85
2022-08-14T10:25:47.534Z,7.63
2022-08-14T10:29:03.692Z,5.32
2022-08-14T10:31:04.091Z,4.43
2022-08-14T10:33:32.723Z,5.63
2022-08-14T10:36:01.473Z,8.95
2022-08-14T10:38:33.520Z,8.30
2022-08-14T10:41:13.232Z,4.05
2022-08-14T10:43:41.259Z,5.32
2022-08-14T10:47:36.499Z,4.75
2022-08-14T10:49:04.456Z,4.32
2022-08-14T10:51:36.317Z,4.03
2022-08-14T10:54:26.011Z,11.13
2022-08-14T10:56:57.455Z,5.18
2022-08-14T10:59:30.754Z,6.28
2022-08-14T11:02:02.345Z,5.95
2022-08-14T11:04:31.221Z,7.00
2022-08-14T11:06:59.171Z,5.97
2022-08-14T11:09:32.146Z,11.10
2022-08-14T11:12:36.009Z,5.78
2022-08-14T11:14:59.234Z,5.00
2022-08-14T11:17:32.019Z,5.07
2022-08-14T11:20:00.602Z,4.72
2022-08-14T11:22:56.483Z,7.80
2022-08-14T11:25:20.430Z,5.63
2022-08-14T11:27:49.448Z,6.60
2022-08-14T11:30:51.226Z,8.02
2022-08-14T11:35:37.009Z,6.90
2022-08-14T11:38:14.672Z,6.70
2022-08-14T11:40:46.866Z,6.40
2022-08-14T11:43:15.078Z,4.88
2022-08-14T11:45:47.684Z,5.85
2022-08-14T11:49:01.596Z,9.77
2022-08-14T11:51:12.959Z,5.57
2022-08-14T11:53:43.545Z,6.53
2022-08-14T11:56:14.495Z,6.28
2022-08-14T11:58:51.118Z,5.25
2022-08-14T12:01:28.408Z,6.47
2022-08-14T12:03:59.059Z,5.93
2022-08-14T12:06:38.539Z,5.88
2022-08-14T12:09:08.569Z,5.18
2022-08-14T12:11:47.291Z,4.15
2022-08-14T12:14:29.810Z,6.25
2022-08-14T12:17:02.419Z,5.93
2022-08-14T12:19:33.665Z,6.28
2022-08-14T12:22:02.554Z,6.53
2022-08-14T12:24:35.714Z,6.25
2022-08-14T12:27:05.939Z,6.68
2022-08-14T12:29:34.902Z,5.50
2022-08-14T12:32:08.905Z,5.10
2022-08-14T12:34:37.389Z,6.45
2022-08-14T12:37:08.919Z,5.30
2022-08-14T12:39:40.047Z,5.22
2022-08-14T12:42:11.873Z,5.72
2022-08-14T12:44:57.594Z,6.53
2022-08-14T12:47:31.165Z,4.97
2022-08-14T12:49:58.800Z,3.63
2022-08-14T12:52:41.574Z,7.57
2022-08-14T12:55:16.746Z,5.95
2022-08-14T12:57:49.444Z,4.38
2022-08-14T13:00:23.038Z,3.65
2022-08-14T13:02:55.103Z,6.18
2022-08-14T13:05:23.795Z,5.20
2022-08-14T13:07:52.036Z,13.93
2022-08-14T13:10:47.724Z,6.43
2022-08-14T13:13:15.240Z,3.80
2022-08-14T13:15:45.238Z,4.25
2022-08-14T13:18:14.413Z,4.03
2022-08-14T13:20:51.254Z,3.30
2022-08-14T13:23:30.431Z,4.63
2022-08-14T13:25:59.851Z,6.30
2022-08-14T13:28:33.955Z,4.80
2022-08-14T13:31:03.627Z,2.67
2022-08-14T13:33:37.148Z,4.45
2022-08-14T13:36:08.267Z,4.75
2022-08-14T13:38:36.848Z,4.63
2022-08-14T13:41:06.096Z,5.70
2022-08-14T13:43:36.826Z,6.30
2022-08-14T13:46:17.708Z,3.38
2022-08-14T13:48:45.162Z,2.80
2022-08-14T13:51:13.179Z,3.75
2022-08-14T13:54:01.526Z,3.13
2022-08-14T13:56:36.728Z,3.45
2022-08-14T13:59:06.409Z,3.55
2022-08-14T14:01:43.343Z,5.65
2022-08-14T14:04:19.347Z,3.70
2022-08-14T14:06:48.595Z,3.35
2022-08-14T14:11:44.158Z,3.03
2022-08-14T14:14:45.161Z,5.68
2022-08-14T14:17:01.368Z,3.35
2022-08-14T14:19:30.769Z,4.32
2022-08-14T14:21:58.988Z,2.53
2022-08-14T14:24:26.337Z,5.20
2022-08-14T14:27:30.119Z,3.92
2022-08-14T14:29:55.456Z,4.07
2022-08-14T14:32:31.067Z,3.53
2022-08-14T14:35:01.357Z,3.17
2022-08-14T14:37:29.338Z,6.10
2022-08-14T14:40:52.088Z,5.47
2022-08-14T14:42:46.943Z,4.68
2022-08-14T14:45:21.374Z,3.40
2022-08-14T14:47:51.529Z,7.50
2022-08-14T14:50:26.792Z,2.90
2022-08-14T14:53:12.497Z,4.32
2022-08-14T14:55:54.415Z,3.60
2022-08-14T14:58:31.428Z,4.07
2022-08-14T15:01:03.485Z,4.18
2022-08-14T15:03:36.095Z,2.53
2022-08-14T15:06:04.764Z,3.67
2022-08-14T15:08:55.860Z,5.63
2022-08-14T15:11:20.837Z,6.25
2022-08-14T15:13:53.188Z,10.88
2022-08-14T15:16:22.359Z,3.50
2022-08-14T15:18:52.833Z,3.00
2022-08-14T15:21:20.506Z,5.20
2022-08-14T15:23:48.951Z,3.80
2022-08-14T15:26:23.704Z,4.30
2022-08-14T15:29:03.164Z,4.28
2022-08-14T15:31:34.939Z,3.42
2022-08-14T15:34:43.692Z,4.35
2022-08-14T15:37:02.020Z,3.60
2022-08-14T15:39:35.769Z,3.20
2022-08-14T15:42:15.668Z,2.38
2022-08-14T15:44:56.620Z,3.78
2022-08-14T15:47:28.036Z,3.90
2022-08-14T15:49:59.423Z,3.30
2022-08-14T15:52:34.350Z,4.55
2022-08-14T15:57:30.913Z,4.55
2022-08-14T16:00:37.820Z,4.70
2022-08-14T16:03:09.611Z,4.72
2022-08-14T16:05:37.997Z,3.67
2022-08-14T16:08:07.462Z,3.20
2022-08-14T16:10:54.914Z,3.95
2022-08-14T16:13:39.178Z,4.65
2022-08-14T16:16:34.571Z,4.88
2022-08-14T16:18:58.194Z,5.40
2022-08-14T16:21:29.472Z,3.75
2022-08-14T16:24:00.784Z,4.60
2022-08-14T16:26:29.227Z,3.88
2022-08-14T16:29:02.513Z,5.75
2022-08-14T16:31:35.782Z,4.47
2022-08-14T16:34:44.454Z,3.60
2022-08-14T16:36:54.137Z,5.65
2022-08-14T16:39:22.501Z,4.22
2022-08-14T16:44:31.783Z,3.67
2022-08-14T16:47:03.064Z,3.97
2022-08-14T16:49:50.572Z,5.22
2022-08-14T16:52:26.025Z,5.80
2022-08-14T16:55:07.863Z,5.90
2022-08-14T16:57:35.547Z,4.30
2022-08-14T17:02:36.061Z,6.65
2022-08-14T17:05:17.632Z,8.85
2022-08-14T17:08:32.779Z,5.10
2022-08-14T17:11:04.715Z,8.10
2022-08-14T17:13:59.468Z,5.60
2022-08-14T17:16:29.498Z,8.13
2022-08-14T17:19:01.779Z,6.72
2022-08-14T17:21:35.300Z,5.75
2022-08-14T17:24:56.583Z,5.40
2022-08-14T17:26:55.846Z,5.82
2022-08-14T17:29:24.340Z,5.30
2022-08-14T17:32:01.842Z,5.10
2022-08-14T17:34:45.077Z,5.40
2022-08-14T17:37:25.238Z,4.50
2022-08-14T17:40:03.260Z,4.75
2022-08-14T17:42:55.414Z,6.93
2022-08-14T17:45:29.213Z,5.60
2022-08-14T17:49:14.540Z,6.15
2022-08-14T17:51:01.190Z,5.07
2022-08-14T17:53:30.811Z,6.32
2022-08-14T17:56:02.887Z,6.88
2022-08-14T17:58:38.571Z,7.68
2022-08-14T18:01:13.662Z,6.55
2022-08-14T18:03:49.995Z,7.05
2022-08-14T18:06:38.584Z,6.55
2022-08-14T18:09:25.174Z,4.90
2022-08-14T18:11:54.461Z,5.68
2022-08-14T18:14:33.153Z,6.78
2022-08-14T18:17:11.180Z,7.45
2022-08-14T18:19:41.603Z,5.22
2022-08-14T18:22:31.211Z,6.47
2022-08-14T18:24:59.433Z,6.45
2022-08-14T18:27:33.459Z,7.13
2022-08-14T18:30:33.336Z,9.45
2022-08-14T18:32:54.912Z,6.47
2022-08-14T18:35:24.323Z,7.05
2022-08-14T18:38:45.567Z,9.38
2022-08-14T18:43:44.234Z,10.40
2022-08-14T18:47:00.105Z,12.20
2022-08-14T18:49:14.328Z,7.03
2022-08-14T18:51:45.237Z,6.35
2022-08-14T18:54:29.998Z,6.13
2022-08-14T18:57:01.278Z,7.22
2022-08-14T18:59:35.732Z,9.98
2022-08-14T19:02:22.072Z,7.15
2022-08-14T19:04:59.543Z,6.38
2022-08-14T19:07:33.917Z,8.07
2022-08-14T19:10:02.582Z,8.35
2022-08-14T19:12:49.818Z,6.47
2022-08-14T19:15:25.725Z,6.35
2022-08-14T19:18:10.767Z,9.25
2022-08-14T19:20:49.032Z,8.77
2022-08-14T19:23:21.587Z,6.60
2022-08-14T19:25:56.930Z,5.53
2022-08-14T19:28:30.840Z,7.82
2022-08-14T19:31:21.082Z,8.52
2022-08-14T19:33:51.850Z,8.13
2022-08-14T19:36:28.805Z,8.23
2022-08-14T19:39:00.086Z,10.30
2022-08-14T19:41:30.238Z,8.02
2022-08-14T19:44:10.519Z,7.32
2022-08-14T19:47:01.466Z,7.45
2022-08-14T19:50:07.897Z,9.10
2022-08-14T19:52:21.442Z,8.27
2022-08-14T19:54:50.571Z,8.48
2022-08-14T19:57:19.876Z,6.72
2022-08-14T19:59:57.679Z,9.20
2022-08-14T20:02:30.171Z,8.32
2022-08-14T20:05:02.941Z,9.18
2022-08-14T20:08:00.359Z,8.85
2022-08-14T20:11:12.757Z,7.05
2022-08-14T20:13:14.751Z,7.82
2022-08-14T20:18:48.772Z,7.45
2022-08-14T20:21:14.863Z,8.80
2022-08-14T20:23:42.290Z,8.25
2022-08-14T20:26:31.568Z,7.03
2022-08-14T20:29:00.020Z,9.07
2022-08-14T20:31:36.679Z,10.65
2022-08-14T20:34:06.834Z,11.25
2022-08-14T20:36:40.362Z,9.40
2022-08-14T20:39:15.236Z,8.02
2022-08-14T20:41:43.754Z,7.93
2022-08-14T20:44:46.041Z,8.43
2022-08-14T20:47:15.002Z,7.25
2022-08-14T20:49:42.504Z,7.47
2022-08-14T20:52:18.838Z,9.15
2022-08-14T20:54:51.257Z,8.43
2022-08-14T20:57:19.361Z,7.72
2022-08-14T20:59:51.728Z,8.05
2022-08-14T21:02:29.599Z,8.23
2022-08-14T21:04:58.846Z,11.98
2022-08-14T21:07:36.602Z,9.13
2022-08-14T21:10:34.146Z,9.52
2022-08-14T21:13:26.155Z,8.25
2022-08-14T21:15:43.372Z,11.38
2022-08-14T21:18:28.676Z,7.00
2022-08-14T21:20:57.418Z,9.98
2022-08-14T21:23:24.874Z,10.15
2022-08-14T21:25:59.923Z,7.68
2022-08-14T21:28:30.568Z,12.10
2022-08-14T21:31:02.835Z,10.43
2022-08-14T21:33:32.287Z,9.15
2022-08-14T21:36:06.025Z,8.45
2022-08-14T21:38:36.480Z,12.73
2022-08-14T21:41:41.210Z,9.20
2022-08-14T21:44:05.233Z,10.80
2022-08-14T21:46:47.530Z,10.05
2022-08-14T21:49:17.482Z,9.43
2022-08-14T21:51:54.462Z,9.05
2022-08-14T21:54:32.431Z,11.95
2022-08-14T21:57:15.248Z,9.00
2022-08-14T21:59:43.174Z,13.32
2022-08-14T22:02:32.536Z,10.63
2022-08-14T22:05:03.414Z,10.13
2022-08-14T22:07:31.030Z,9.15
2022-08-14T22:10:01.559Z,8.73
2022-08-14T22:12:57.569Z,13.88
2022-08-14T22:15:20.721Z,9.15
2022-08-14T22:17:52.364Z,9.30
2022-08-14T22:20:27.974Z,13.07
2022-08-14T22:22:56.615Z,9.95
2022-08-14T22:25:33.562Z,10.95
2022-08-14T22:28:02.270Z,12.30
2022-08-14T22:30:29.923Z,11.48
2022-08-14T22:32:59.912Z,11.20
2022-08-14T22:35:29.391Z,13.50
2022-08-14T22:38:35.895Z,10.52
2022-08-14T22:41:14.890Z,12.82
2022-08-14T22:43:35.262Z,10.05
2022-08-14T22:46:06.041Z,10.20
2022-08-14T22:48:42.094Z,11.68
2022-08-14T22:51:13.309Z,15.40
2022-08-14T22:53:41.171Z,11.45
2022-08-14T22:56:20.488Z,12.20
2022-08-14T22:58:49.907Z,10.40
2022-08-14T23:01:22.761Z,10.40
2022-08-14T23:03:50.761Z,9.70
2022-08-14T23:07:01.451Z,11.38
2022-08-14T23:09:35.114Z,11.32
2022-08-14T23:11:56.833Z,12.23
2022-08-14T23:14:26.769Z,11.25
2022-08-14T23:16:57.731Z,10.93
2022-08-14T23:19:33.866Z,11.52
2022-08-14T23:22:05.056Z,17.25
2022-08-14T23:24:32.504Z,10.95
2022-08-14T23:27:00.533Z,13.13
2022-08-14T23:29:31.405Z,13.48
2022-08-14T23:31:59.192Z,15.20
2022-08-14T23:34:29.586Z,14.45
2022-08-14T23:36:58.208Z,10.82
2022-08-14T23:39:33.231Z,15.35
2022-08-14T23:42:04.219Z,16.30
2022-08-14T23:44:35.386Z,12.93
2022-08-14T23:47:10.703Z,14.02
2022-08-14T23:49:56.624Z,11.52
2022-08-14T23:53:04.057Z,14.13
2022-08-14T23:55:16.206Z,12.60
2022-08-14T23:57:58.491Z,12.93
